Time,TemperatureF,DewpointF,PressureIn,WindDirection,WindDirectionDegrees,WindSpeedMPH,WindSpeedGustMPH,Humidity,HourlyPrecipIn,Conditions,Clouds,dailyrainin,SoftwareType,DateUTC
2013-06-28 00:02:00,75.0,-99.9,29.64,SSW,206,11.0,14.0,-999,-99.99,,,-99.99,,2013-06-28 04:02:00,
2013-06-28 00:33:00,76.0,-99.9,29.63,SSW,210,12.0,16.0,-999,-99.99,,,-99.99,,2013-06-28 04:33:00,
2013-06-28 00:43:00,76.0,-99.9,29.62,SW,214,9.0,13.0,-999,-99.99,,,-99.99,,2013-06-28 04:43:00,
2013-06-28 00:53:00,76.0,-99.9,29.62,SW,214,9.0,13.0,-999,-99.99,,,-99.99,,2013-06-28 04:53:00,
2013-06-28 01:02:00,74.0,-99.9,29.62,SSW,196,6.0,9.0,-999,-99.99,,,-99.99,,2013-06-28 05:02:00,
2013-06-28 01:33:00,73.0,-99.9,29.62,South,179,8.0,12.0,-999,-99.99,,,-99.99,,2013-06-28 05:33:00,
2013-06-28 01:43:00,72.0,-99.9,29.62,South,169,9.0,13.0,-999,-99.99,,,-99.99,,2013-06-28 05:43:00,
2013-06-28 01:53:00,72.0,-99.9,29.61,South,175,8.0,11.0,-999,-99.99,,,-99.99,,2013-06-28 05:53:00,
2013-06-28 02:02:00,72.0,-99.9,29.61,South,180,7.0,9.0,-999,-99.99,,,-99.99,,2013-06-28 06:02:00,
2013-06-28 02:34:00,74.0,-99.9,29.59,SW,216,9.0,12.0,-999,-99.99,,,-99.99,,2013-06-28 06:34:00,
2013-06-28 02:43:00,74.0,-99.9,29.59,SSW,213,9.0,13.0,-999,-99.99,,,-99.99,,2013-06-28 06:43:00,
2013-06-28 02:52:00,75.0,-99.9,29.59,SSW,210,11.0,18.0,-999,-99.99,,,-99.99,,2013-06-28 06:52:00,
2013-06-28 03:01:00,75.0,-99.9,29.59,SSW,207,10.0,15.0,-999,-99.99,,,-99.99,,2013-06-28 07:01:00,
2013-06-28 03:12:00,75.0,-99.9,29.58,SSW,199,10.0,15.0,-999,-99.99,,,-99.99,,2013-06-28 07:12:00,
2013-06-28 03:33:00,73.0,-99.9,29.58,SSW,195,8.0,11.0,-999,-99.99,,,-99.99,,2013-06-28 07:33:00,
2013-06-28 03:43:00,72.0,-99.9,29.57,South,175,8.0,10.0,-999,-99.99,,,-99.99,,2013-06-28 07:43:00,
2013-06-28 03:52:00,72.0,-99.9,29.57,South,171,8.0,11.0,-999,-99.99,,,-99.99,,2013-06-28 07:52:00,
2013-06-28 04:02:00,71.0,-99.9,29.57,South,173,8.0,10.0,-999,-99.99,,,-99.99,,2013-06-28 08:02:00,
2013-06-28 04:43:00,71.0,-99.9,29.57,South,188,6.0,9.0,-999,-99.99,,,-99.99,,2013-06-28 08:43:00,
2013-06-28 04:52:00,71.0,-99.9,29.57,SSW,198,6.0,9.0,-999,-99.99,,,-99.99,,2013-06-28 08:52:00,
2013-06-28 05:02:00,72.0,-99.9,29.57,SSW,205,8.0,11.0,-999,-99.99,,,-99.99,,2013-06-28 09:02:00,
2013-06-28 05:12:00,72.0,-99.9,29.57,SSW,208,9.0,11.0,-999,-99.99,,,-99.99,,2013-06-28 09:12:00,
2013-06-28 05:33:00,72.0,-99.9,29.57,SSW,205,8.0,11.0,-999,-99.99,,,-99.99,,2013-06-28 09:33:00,
2013-06-28 05:42:00,73.0,-99.9,29.57,SW,226,6.0,10.0,-999,-99.99,,,-99.99,,2013-06-28 09:42:00,
2013-06-28 07:34:00,75.0,-99.9,29.59,WSW,244,13.0,15.0,-999,-99.99,,,-99.99,,2013-06-28 11:34:00,
2013-06-28 07:43:00,75.0,-99.9,29.59,SW,234,10.0,14.0,-999,-99.99,,,-99.99,,2013-06-28 11:43:00,
2013-06-28 08:02:00,75.0,-99.9,29.58,WSW,239,8.0,15.0,-999,-99.99,,,-99.99,,2013-06-28 12:02:00,
2013-06-28 08:34:00,76.0,-99.9,29.59,SW,232,9.0,13.0,-999,-99.99,,,-99.99,,2013-06-28 12:34:00,
2013-06-28 08:43:00,76.0,-99.9,29.58,SW,230,10.0,13.0,-999,-99.99,,,-99.99,,2013-06-28 12:43:00,
2013-06-28 08:52:00,76.0,-99.9,29.58,SW,227,10.0,14.0,-999,-99.99,,,-99.99,,2013-06-28 12:52:00,
2013-06-28 09:02:00,76.0,-99.9,29.58,SW,232,8.0,12.0,-999,-99.99,,,-99.99,,2013-06-28 13:02:00,
2013-06-28 09:23:00,76.0,-99.9,29.57,WSW,240,10.0,11.0,-999,-99.99,,,-99.99,,2013-06-28 13:23:00,
2013-06-28 09:33:00,76.0,-99.9,29.57,SW,231,9.0,11.0,-999,-99.99,,,-99.99,,2013-06-28 13:33:00,
2013-06-28 09:43:00,76.0,-99.9,29.57,SW,230,9.0,12.0,-999,-99.99,,,-99.99,,2013-06-28 13:43:00,
2013-06-28 10:12:00,77.0,-99.9,29.56,SW,222,7.0,10.0,-999,-99.99,,,-99.99,,2013-06-28 14:12:00,
2013-06-28 10:44:00,78.0,-99.9,29.56,SW,223,9.0,11.0,-999,-99.99,,,-99.99,,2013-06-28 14:44:00,
2013-06-28 12:44:00,79.0,-99.9,29.57,SSE,166,11.0,13.0,-999,-99.99,,,-99.99,,2013-06-28 16:44:00,
2013-06-28 13:11:00,77.0,-99.9,29.57,South,179,13.0,16.0,-999,-99.99,,,-99.99,,2013-06-28 17:11:00,
2013-06-28 13:33:00,79.0,-99.9,29.57,South,179,13.0,15.0,-999,-99.99,,,-99.99,,2013-06-28 17:33:00,
2013-06-28 14:33:00,80.0,-99.9,29.55,South,179,12.0,16.0,-999,-99.99,,,-99.99,,2013-06-28 18:33:00,
2013-06-28 15:33:00,78.0,-99.9,29.53,South,179,12.0,15.0,-999,-99.99,,,-99.99,,2013-06-28 19:33:00,
2013-06-28 15:43:00,79.0,-99.9,29.52,South,175,10.0,12.0,-999,-99.99,,,-99.99,,2013-06-28 19:43:00,
2013-06-28 16:02:00,80.0,-99.9,29.51,SSE,168,6.0,11.0,-999,-99.99,,,-99.99,,2013-06-28 20:02:00,
2013-06-28 17:34:00,76.0,-99.9,29.51,SSE,167,10.0,14.0,-999,-99.99,,,-99.99,,2013-06-28 21:34:00,
2013-06-28 17:43:00,76.0,-99.9,29.50,SSE,166,10.0,13.0,-999,-99.99,,,-99.99,,2013-06-28 21:43:00,
2013-06-28 18:01:00,76.0,-99.9,29.51,South,175,7.0,10.0,-999,-99.99,,,-99.99,,2013-06-28 22:01:00,
2013-06-28 18:22:00,76.0,-99.9,29.49,SSE,160,5.0,7.0,-999,-99.99,,,-99.99,,2013-06-28 22:22:00,
2013-06-28 18:34:00,75.0,-99.9,29.51,South,177,8.0,10.0,-999,-99.99,,,-99.99,,2013-06-28 22:34:00,
2013-06-28 18:43:00,75.0,-99.9,29.50,SSE,167,8.0,10.0,-999,-99.99,,,-99.99,,2013-06-28 22:43:00,
2013-06-28 18:53:00,75.0,-99.9,29.51,South,175,7.0,9.0,-999,-99.99,,,-99.99,,2013-06-28 22:53:00,
2013-06-28 19:02:00,76.0,-99.9,29.52,South,177,9.0,13.0,-999,-99.99,,,-99.99,,2013-06-28 23:02:00,
2013-06-28 19:11:00,75.0,-99.9,29.51,South,170,8.0,10.0,-999,-99.99,,,-99.99,,2013-06-28 23:11:00,
2013-06-28 19:23:00,75.0,-99.9,29.51,South,170,8.0,10.0,-999,-99.99,,,-99.99,,2013-06-28 23:23:00,
2013-06-28 19:34:00,74.0,-99.9,29.51,SSE,167,11.0,14.0,-999,-99.99,,,-99.99,,2013-06-28 23:34:00,
2013-06-28 19:43:00,75.0,-99.9,29.50,SSE,161,11.0,17.0,-999,-99.99,,,-99.99,,2013-06-28 23:43:00,
2013-06-28 19:53:00,74.0,-99.9,29.49,SSE,165,12.0,15.0,-999,-99.99,,,-99.99,,2013-06-28 23:53:00,
2013-06-28 20:02:00,74.0,-99.9,29.50,South,171,15.0,20.0,-999,-99.99,,,-99.99,,2013-06-29 00:02:00,
2013-06-28 20:12:00,75.0,-99.9,29.50,South,179,11.0,17.0,-999,-99.99,,,-99.99,,2013-06-29 00:12:00,
2013-06-28 20:23:00,76.0,-99.9,29.51,South,186,9.0,12.0,-999,-99.99,,,-99.99,,2013-06-29 00:23:00,
2013-06-28 20:33:00,76.0,-99.9,29.52,SW,216,6.0,8.0,-999,-99.99,,,-99.99,,2013-06-29 00:33:00,
2013-06-28 20:42:00,77.0,-99.9,29.52,SSW,207,11.0,16.0,-999,-99.99,,,-99.99,,2013-06-29 00:42:00,
2013-06-28 20:52:00,78.0,-99.9,29.52,SW,215,11.0,14.0,-999,-99.99,,,-99.99,,2013-06-29 00:52:00,
2013-06-28 21:01:00,77.0,-99.9,29.54,SW,228,9.0,13.0,-999,-99.99,,,-99.99,,2013-06-29 01:01:00,
2013-06-28 21:11:00,78.0,-99.9,29.55,WSW,250,13.0,15.0,-999,-99.99,,,-99.99,,2013-06-29 01:11:00,
2013-06-28 21:22:00,78.0,-99.9,29.55,West,261,10.0,11.0,-999,-99.99,,,-99.99,,2013-06-29 01:22:00,
2013-06-28 21:32:00,78.0,-99.9,29.55,WSW,257,6.0,8.0,-999,-99.99,,,-99.99,,2013-06-29 01:32:00,
2013-06-28 21:42:00,79.0,-99.9,29.56,WNW,290,7.0,9.0,-999,-99.99,,,-99.99,,2013-06-29 01:42:00,
2013-06-28 21:52:00,78.0,-99.9,29.57,WSW,257,11.0,12.0,-999,-99.99,,,-99.99,,2013-06-29 01:52:00,
2013-06-28 22:01:00,74.0,-99.9,29.57,WNW,294,22.0,29.0,-999,-99.99,,,-99.99,,2013-06-29 02:01:00,
2013-06-28 22:11:00,73.0,-99.9,29.57,NW,310,19.0,24.0,-999,-99.99,,,-99.99,,2013-06-29 02:11:00,
2013-06-28 22:21:00,73.0,-99.9,29.56,NNW,328,14.0,18.0,-999,-99.99,,,-99.99,,2013-06-29 02:21:00,
2013-06-28 22:31:00,73.0,-99.9,29.56,NNW,347,8.0,13.0,-999,-99.99,,,-99.99,,2013-06-29 02:31:00,
2013-06-28 22:41:00,73.0,-99.9,29.56,NW,323,12.0,15.0,-999,-99.99,,,-99.99,,2013-06-29 02:41:00,
2013-06-28 23:01:00,73.0,-99.9,29.56,NNW,334,6.0,8.0,-999,-99.99,,,-99.99,,2013-06-29 03:01:00,
2013-06-28 23:21:00,72.0,-99.9,29.57,West,259,6.0,7.0,-999,-99.99,,,-99.99,,2013-06-29 03:21:00,
2013-06-28 23:32:00,72.0,-99.9,29.57,WSW,256,6.0,9.0,-999,-99.99,,,-99.99,,2013-06-29 03:32:00,
2013-06-28 23:51:00,71.0,-99.9,29.55,SW,231,12.0,16.0,-999,-99.99,,,-99.99,,2013-06-29 03:51:00,